sensor_id;sensor_type;location;lat;lon;timestamp;temperature;humidity
57833;DHT22;43667;53.036;6.740;2022-07-29T07:08:47;16.30;99.90
57833;DHT22;43667;53.036;6.740;2022-07-29T07:11:13;16.50;99.90
57833;DHT22;43667;53.036;6.740;2022-07-29T07:13:38;16.50;99.90
57833;DHT22;43667;53.036;6.740;2022-07-29T07:16:05;16.40;99.90
57833;DHT22;43667;53.036;6.740;2022-07-29T07:18:31;16.50;99.90
57833;DHT22;43667;53.036;6.740;2022-07-29T07:20:58;16.50;99.90
57833;DHT22;43667;53.036;6.740;2022-07-29T07:23:24;16.60;99.90
57833;DHT22;43667;53.036;6.740;2022-07-29T07:25:50;16.60;99.90
57833;DHT22;43667;53.036;6.740;2022-07-29T07:28:16;16.60;99.90
57833;DHT22;43667;53.036;6.740;2022-07-29T07:30:42;16.70;99.90
57833;DHT22;43667;53.036;6.740;2022-07-29T07:33:08;16.80;99.90
57833;DHT22;43667;53.036;6.740;2022-07-29T07:35:33;16.80;99.90
57833;DHT22;43667;53.036;6.740;2022-07-29T07:37:59;16.80;99.90
57833;DHT22;43667;53.036;6.740;2022-07-29T07:40:24;16.90;99.90
57833;DHT22;43667;53.036;6.740;2022-07-29T07:42:50;16.90;99.90
57833;DHT22;43667;53.036;6.740;2022-07-29T07:45:16;17.00;99.90
57833;DHT22;43667;53.036;6.740;2022-07-29T07:47:42;17.10;99.90
57833;DHT22;43667;53.036;6.740;2022-07-29T07:50:10;17.20;99.90
57833;DHT22;43667;53.036;6.740;2022-07-29T07:52:55;17.30;99.90
57833;DHT22;43667;53.036;6.740;2022-07-29T07:55:24;17.30;99.90
57833;DHT22;43667;53.036;6.740;2022-07-29T07:57:50;17.40;99.90
57833;DHT22;43667;53.036;6.740;2022-07-29T08:00:16;17.50;99.90
57833;DHT22;43667;53.036;6.740;2022-07-29T08:02:42;17.60;99.90
57833;DHT22;43667;53.036;6.740;2022-07-29T08:05:09;17.60;99.50
57833;DHT22;43667;53.036;6.740;2022-07-29T08:07:35;17.70;99.30
57833;DHT22;43667;53.036;6.740;2022-07-29T08:10:01;17.90;99.10
57833;DHT22;43667;53.036;6.740;2022-07-29T08:12:26;18.00;98.70
57833;DHT22;43667;53.036;6.740;2022-07-29T08:14:52;18.10;98.60
57833;DHT22;43667;53.036;6.740;2022-07-29T08:17:18;18.20;98.10
57833;DHT22;43667;53.036;6.740;2022-07-29T08:19:43;18.20;97.90
57833;DHT22;43667;53.036;6.740;2022-07-29T08:22:09;18.30;97.70
57833;DHT22;43667;53.036;6.740;2022-07-29T08:24:35;18.30;98.00
57833;DHT22;43667;53.036;6.740;2022-07-29T08:27:12;18.30;97.80
57833;DHT22;43667;53.036;6.740;2022-07-29T08:29:38;18.30;97.50
57833;DHT22;43667;53.036;6.740;2022-07-29T08:32:04;18.20;97.80
57833;DHT22;43667;53.036;6.740;2022-07-29T08:34:30;18.30;98.00
57833;DHT22;43667;53.036;6.740;2022-07-29T08:36:56;18.40;97.70
57833;DHT22;43667;53.036;6.740;2022-07-29T08:39:22;18.50;97.50
57833;DHT22;43667;53.036;6.740;2022-07-29T08:41:48;18.50;97.40
57833;DHT22;43667;53.036;6.740;2022-07-29T08:44:16;18.60;97.30
57833;DHT22;43667;53.036;6.740;2022-07-29T08:46:42;18.60;97.30
57833;DHT22;43667;53.036;6.740;2022-07-29T08:49:08;18.60;97.20
57833;DHT22;43667;53.036;6.740;2022-07-29T08:51:36;18.60;96.90
57833;DHT22;43667;53.036;6.740;2022-07-29T08:54:02;18.70;96.50
57833;DHT22;43667;53.036;6.740;2022-07-29T08:56:28;18.70;96.70
57833;DHT22;43667;53.036;6.740;2022-07-29T08:58:58;18.70;96.70
57833;DHT22;43667;53.036;6.740;2022-07-29T09:01:25;18.80;96.50
57833;DHT22;43667;53.036;6.740;2022-07-29T09:03:55;18.90;96.10
57833;DHT22;43667;53.036;6.740;2022-07-29T09:06:22;18.90;95.90
57833;DHT22;43667;53.036;6.740;2022-07-29T09:08:47;18.90;95.70
57833;DHT22;43667;53.036;6.740;2022-07-29T09:11:14;18.90;96.00
57833;DHT22;43667;53.036;6.740;2022-07-29T09:13:40;18.90;96.10
57833;DHT22;43667;53.036;6.740;2022-07-29T09:16:06;18.90;96.10
57833;DHT22;43667;53.036;6.740;2022-07-29T09:18:40;18.90;96.00
57833;DHT22;43667;53.036;6.740;2022-07-29T09:21:08;19.00;95.90
57833;DHT22;43667;53.036;6.740;2022-07-29T09:24:10;19.10;95.90
57833;DHT22;43667;53.036;6.740;2022-07-29T09:26:43;19.10;95.30
57833;DHT22;43667;53.036;6.740;2022-07-29T09:29:13;19.20;95.70
57833;DHT22;43667;53.036;6.740;2022-07-29T09:31:41;19.30;95.40
57833;DHT22;43667;53.036;6.740;2022-07-29T09:34:08;19.40;95.60
57833;DHT22;43667;53.036;6.740;2022-07-29T09:36:43;19.40;95.40
57833;DHT22;43667;53.036;6.740;2022-07-29T09:39:09;19.40;94.10
57833;DHT22;43667;53.036;6.740;2022-07-29T09:41:51;19.40;94.40
57833;DHT22;43667;53.036;6.740;2022-07-29T09:44:21;19.40;94.70
57833;DHT22;43667;53.036;6.740;2022-07-29T09:47:04;19.40;95.10
57833;DHT22;43667;53.036;6.740;2022-07-29T09:49:35;19.60;93.90
57833;DHT22;43667;53.036;6.740;2022-07-29T09:52:09;19.70;94.00
57833;DHT22;43667;53.036;6.740;2022-07-29T09:54:35;19.70;93.70
57833;DHT22;43667;53.036;6.740;2022-07-29T09:57:04;19.70;94.30
57833;DHT22;43667;53.036;6.740;2022-07-29T09:59:30;19.60;94.20
57833;DHT22;43667;53.036;6.740;2022-07-29T10:01:55;19.60;94.40
57833;DHT22;43667;53.036;6.740;2022-07-29T10:04:21;19.60;94.70
57833;DHT22;43667;53.036;6.740;2022-07-29T10:07:01;19.60;94.10
57833;DHT22;43667;53.036;6.740;2022-07-29T10:09:26;19.50;94.40
57833;DHT22;43667;53.036;6.740;2022-07-29T10:12:09;19.50;95.00
57833;DHT22;43667;53.036;6.740;2022-07-29T10:14:35;19.60;95.40
57833;DHT22;43667;53.036;6.740;2022-07-29T10:17:02;19.70;95.10
57833;DHT22;43667;53.036;6.740;2022-07-29T10:19:29;19.80;94.60
57833;DHT22;43667;53.036;6.740;2022-07-29T10:21:58;19.80;94.10
57833;DHT22;43667;53.036;6.740;2022-07-29T10:24:28;19.80;94.40
57833;DHT22;43667;53.036;6.740;2022-07-29T10:26:56;19.90;94.60
57833;DHT22;43667;53.036;6.740;2022-07-29T10:29:23;20.00;94.80
57833;DHT22;43667;53.036;6.740;2022-07-29T10:35:09;20.20;94.30
57833;DHT22;43667;53.036;6.740;2022-07-29T10:38:00;20.30;93.20
57833;DHT22;43667;53.036;6.740;2022-07-29T10:40:57;20.30;93.60
57833;DHT22;43667;53.036;6.740;2022-07-29T10:43:46;20.40;93.10
57833;DHT22;43667;53.036;6.740;2022-07-29T10:46:14;20.50;93.80
57833;DHT22;43667;53.036;6.740;2022-07-29T10:51:56;20.70;92.50
57833;DHT22;43667;53.036;6.740;2022-07-29T10:54:41;20.80;92.70
57833;DHT22;43667;53.036;6.740;2022-07-29T10:57:27;21.00;91.60
57833;DHT22;43667;53.036;6.740;2022-07-29T11:05:01;21.50;90.90
57833;DHT22;43667;53.036;6.740;2022-07-29T11:07:29;21.60;90.20
57833;DHT22;43667;53.036;6.740;2022-07-29T11:15:10;21.70;88.10
57833;DHT22;43667;53.036;6.740;2022-07-29T11:20:38;21.80;87.80
57833;DHT22;43667;53.036;6.740;2022-07-29T11:23:25;22.00;87.40
57833;DHT22;43667;53.036;6.740;2022-07-29T11:26:18;21.90;85.00
57833;DHT22;43667;53.036;6.740;2022-07-29T11:29:20;21.80;85.50
57833;DHT22;43667;53.036;6.740;2022-07-29T11:31:50;21.70;87.90
57833;DHT22;43667;53.036;6.740;2022-07-29T11:34:25;21.60;89.60
57833;DHT22;43667;53.036;6.740;2022-07-29T11:39:39;21.60;86.30
57833;DHT22;43667;53.036;6.740;2022-07-29T11:47:29;21.70;87.70
57833;DHT22;43667;53.036;6.740;2022-07-29T11:49:56;21.80;87.50
57833;DHT22;43667;53.036;6.740;2022-07-29T11:52:23;21.80;87.90
57833;DHT22;43667;53.036;6.740;2022-07-29T11:54:50;21.80;87.70
57833;DHT22;43667;53.036;6.740;2022-07-29T11:57:17;22.00;88.10
57833;DHT22;43667;53.036;6.740;2022-07-29T11:59:45;22.10;86.90
57833;DHT22;43667;53.036;6.740;2022-07-29T12:02:13;22.20;85.40
57833;DHT22;43667;53.036;6.740;2022-07-29T12:04:53;22.40;83.00
57833;DHT22;43667;53.036;6.740;2022-07-29T12:07:29;22.60;81.00
57833;DHT22;43667;53.036;6.740;2022-07-29T12:09:56;22.60;80.60
57833;DHT22;43667;53.036;6.740;2022-07-29T12:12:22;22.80;79.90
57833;DHT22;43667;53.036;6.740;2022-07-29T12:14:48;22.90;78.80
57833;DHT22;43667;53.036;6.740;2022-07-29T12:17:34;23.00;77.70
57833;DHT22;43667;53.036;6.740;2022-07-29T12:20:02;23.00;77.30
57833;DHT22;43667;53.036;6.740;2022-07-29T12:22:32;22.90;78.80
57833;DHT22;43667;53.036;6.740;2022-07-29T12:25:06;22.90;79.80
57833;DHT22;43667;53.036;6.740;2022-07-29T12:27:32;22.90;80.10
57833;DHT22;43667;53.036;6.740;2022-07-29T12:29:59;22.80;79.60
57833;DHT22;43667;53.036;6.740;2022-07-29T12:34:59;22.90;78.80
57833;DHT22;43667;53.036;6.740;2022-07-29T12:37:25;22.80;79.30
57833;DHT22;43667;53.036;6.740;2022-07-29T12:39:51;22.90;81.10
57833;DHT22;43667;53.036;6.740;2022-07-29T12:42:16;23.10;80.50
57833;DHT22;43667;53.036;6.740;2022-07-29T12:44:48;23.20;79.10
57833;DHT22;43667;53.036;6.740;2022-07-29T12:47:14;23.30;79.50
57833;DHT22;43667;53.036;6.740;2022-07-29T12:49:40;23.30;77.70
57833;DHT22;43667;53.036;6.740;2022-07-29T12:52:30;23.40;77.40
57833;DHT22;43667;53.036;6.740;2022-07-29T12:54:57;23.50;76.10
57833;DHT22;43667;53.036;6.740;2022-07-29T12:57:23;23.70;76.20
57833;DHT22;43667;53.036;6.740;2022-07-29T13:00:11;23.90;74.60
57833;DHT22;43667;53.036;6.740;2022-07-29T13:02:38;24.20;72.80
57833;DHT22;43667;53.036;6.740;2022-07-29T13:05:05;24.50;71.20
57833;DHT22;43667;53.036;6.740;2022-07-29T13:07:32;24.80;69.60
57833;DHT22;43667;53.036;6.740;2022-07-29T13:10:15;25.00;67.60
57833;DHT22;43667;53.036;6.740;2022-07-29T13:15:28;25.10;66.20
57833;DHT22;43667;53.036;6.740;2022-07-29T13:17:53;25.20;65.20
57833;DHT22;43667;53.036;6.740;2022-07-29T13:20:24;25.20;64.60
57833;DHT22;43667;53.036;6.740;2022-07-29T13:22:50;25.30;64.40
57833;DHT22;43667;53.036;6.740;2022-07-29T13:25:27;25.30;64.10
57833;DHT22;43667;53.036;6.740;2022-07-29T13:27:53;25.10;62.40
57833;DHT22;43667;53.036;6.740;2022-07-29T13:30:20;24.90;63.30
57833;DHT22;43667;53.036;6.740;2022-07-29T13:32:45;25.00;63.70
57833;DHT22;43667;53.036;6.740;2022-07-29T13:35:12;24.90;62.60
57833;DHT22;43667;53.036;6.740;2022-07-29T13:37:38;24.80;63.30
57833;DHT22;43667;53.036;6.740;2022-07-29T13:40:06;24.90;62.90
57833;DHT22;43667;53.036;6.740;2022-07-29T13:42:32;25.00;62.50
57833;DHT22;43667;53.036;6.740;2022-07-29T13:44:58;24.90;61.60
57833;DHT22;43667;53.036;6.740;2022-07-29T13:47:24;24.90;60.80
57833;DHT22;43667;53.036;6.740;2022-07-29T13:49:50;24.80;60.20
57833;DHT22;43667;53.036;6.740;2022-07-29T13:52:16;24.80;60.10
57833;DHT22;43667;53.036;6.740;2022-07-29T13:54:42;24.80;59.80
57833;DHT22;43667;53.036;6.740;2022-07-29T13:57:09;24.90;59.50
57833;DHT22;43667;53.036;6.740;2022-07-29T13:59:42;25.00;58.90
57833;DHT22;43667;53.036;6.740;2022-07-29T14:02:08;25.10;57.80
57833;DHT22;43667;53.036;6.740;2022-07-29T14:04:34;25.20;58.90
57833;DHT22;43667;53.036;6.740;2022-07-29T14:07:01;25.30;58.10
57833;DHT22;43667;53.036;6.740;2022-07-29T14:09:26;25.30;57.90
57833;DHT22;43667;53.036;6.740;2022-07-29T14:11:52;25.30;57.20
57833;DHT22;43667;53.036;6.740;2022-07-29T14:14:18;25.30;57.00
57833;DHT22;43667;53.036;6.740;2022-07-29T14:16:44;25.40;57.20
57833;DHT22;43667;53.036;6.740;2022-07-29T14:19:10;25.50;57.90
57833;DHT22;43667;53.036;6.740;2022-07-29T14:21:36;25.70;56.50
57833;DHT22;43667;53.036;6.740;2022-07-29T14:24:02;25.70;55.80
57833;DHT22;43667;53.036;6.740;2022-07-29T14:26:28;25.60;55.80
57833;DHT22;43667;53.036;6.740;2022-07-29T14:28:54;25.50;55.60
57833;DHT22;43667;53.036;6.740;2022-07-29T14:31:19;25.40;55.80
57833;DHT22;43667;53.036;6.740;2022-07-29T14:33:45;25.40;55.70
57833;DHT22;43667;53.036;6.740;2022-07-29T14:36:10;25.60;56.70
57833;DHT22;43667;53.036;6.740;2022-07-29T14:38:36;25.90;55.90
57833;DHT22;43667;53.036;6.740;2022-07-29T14:41:06;26.30;54.50
57833;DHT22;43667;53.036;6.740;2022-07-29T14:43:33;26.60;53.70
57833;DHT22;43667;53.036;6.740;2022-07-29T14:46:00;26.90;53.50
57833;DHT22;43667;53.036;6.740;2022-07-29T14:48:26;27.10;52.90
57833;DHT22;43667;53.036;6.740;2022-07-29T14:50:51;27.00;51.40
57833;DHT22;43667;53.036;6.740;2022-07-29T14:53:17;27.20;51.10
57833;DHT22;43667;53.036;6.740;2022-07-29T14:55:43;27.50;50.90
57833;DHT22;43667;53.036;6.740;2022-07-29T14:58:09;27.60;50.30
57833;DHT22;43667;53.036;6.740;2022-07-29T15:00:35;27.70;49.90
57833;DHT22;43667;53.036;6.740;2022-07-29T15:03:02;27.70;50.20
57833;DHT22;43667;53.036;6.740;2022-07-29T15:05:29;27.90;49.90
57833;DHT22;43667;53.036;6.740;2022-07-29T15:07:55;28.00;50.00
57833;DHT22;43667;53.036;6.740;2022-07-29T15:10:21;28.00;49.40
57833;DHT22;43667;53.036;6.740;2022-07-29T15:12:46;28.20;49.70
57833;DHT22;43667;53.036;6.740;2022-07-29T15:15:12;28.30;48.50
57833;DHT22;43667;53.036;6.740;2022-07-29T15:17:37;28.30;48.80
57833;DHT22;43667;53.036;6.740;2022-07-29T15:20:03;28.40;48.10
57833;DHT22;43667;53.036;6.740;2022-07-29T15:22:29;28.40;47.60
57833;DHT22;43667;53.036;6.740;2022-07-29T15:24:55;28.60;47.00
57833;DHT22;43667;53.036;6.740;2022-07-29T15:27:20;28.90;46.60
57833;DHT22;43667;53.036;6.740;2022-07-29T15:29:46;29.00;47.20
57833;DHT22;43667;53.036;6.740;2022-07-29T15:32:11;29.20;46.60
57833;DHT22;43667;53.036;6.740;2022-07-29T15:34:38;29.30;46.00
57833;DHT22;43667;53.036;6.740;2022-07-29T15:37:04;29.10;45.40
57833;DHT22;43667;53.036;6.740;2022-07-29T15:39:30;28.80;44.80
57833;DHT22;43667;53.036;6.740;2022-07-29T15:41:56;28.70;44.10
57833;DHT22;43667;53.036;6.740;2022-07-29T15:44:22;28.80;45.00
57833;DHT22;43667;53.036;6.740;2022-07-29T15:46:48;28.80;44.60
57833;DHT22;43667;53.036;6.740;2022-07-29T15:49:37;29.00;44.60
57833;DHT22;43667;53.036;6.740;2022-07-29T15:52:05;29.20;43.80
57833;DHT22;43667;53.036;6.740;2022-07-29T15:54:32;29.40;43.80
57833;DHT22;43667;53.036;6.740;2022-07-29T15:56:59;29.60;42.70
57833;DHT22;43667;53.036;6.740;2022-07-29T15:59:24;29.90;42.50
57833;DHT22;43667;53.036;6.740;2022-07-29T16:01:50;30.10;41.30
57833;DHT22;43667;53.036;6.740;2022-07-29T16:04:16;30.30;41.10
57833;DHT22;43667;53.036;6.740;2022-07-29T16:06:42;30.40;41.20
57833;DHT22;43667;53.036;6.740;2022-07-29T16:09:08;30.60;40.60
57833;DHT22;43667;53.036;6.740;2022-07-29T16:11:35;31.00;40.50
57833;DHT22;43667;53.036;6.740;2022-07-29T16:14:01;31.30;39.90
57833;DHT22;43667;53.036;6.740;2022-07-29T16:16:27;31.40;39.20
57833;DHT22;43667;53.036;6.740;2022-07-29T16:18:53;31.20;38.90
57833;DHT22;43667;53.036;6.740;2022-07-29T16:21:18;31.20;38.70
57833;DHT22;43667;53.036;6.740;2022-07-29T16:23:44;31.30;39.00
57833;DHT22;43667;53.036;6.740;2022-07-29T16:26:10;31.20;39.20
57833;DHT22;43667;53.036;6.740;2022-07-29T16:28:36;31.30;38.40
57833;DHT22;43667;53.036;6.740;2022-07-29T16:31:02;31.20;38.20
57833;DHT22;43667;53.036;6.740;2022-07-29T16:33:27;31.40;37.90
57833;DHT22;43667;53.036;6.740;2022-07-29T16:35:53;31.50;38.20
57833;DHT22;43667;53.036;6.740;2022-07-29T16:38:19;31.50;37.30
57833;DHT22;43667;53.036;6.740;2022-07-29T16:40:45;31.40;37.50
57833;DHT22;43667;53.036;6.740;2022-07-29T16:43:10;31.50;38.00
57833;DHT22;43667;53.036;6.740;2022-07-29T16:45:36;31.60;37.00
57833;DHT22;43667;53.036;6.740;2022-07-29T16:48:02;31.60;36.60
57833;DHT22;43667;53.036;6.740;2022-07-29T16:50:29;31.50;36.60
57833;DHT22;43667;53.036;6.740;2022-07-29T16:52:55;31.80;37.50
57833;DHT22;43667;53.036;6.740;2022-07-29T16:55:21;32.00;37.40
57833;DHT22;43667;53.036;6.740;2022-07-29T16:57:47;32.20;36.40
57833;DHT22;43667;53.036;6.740;2022-07-29T17:00:15;32.50;36.80
57833;DHT22;43667;53.036;6.740;2022-07-29T17:02:41;32.60;37.20
57833;DHT22;43667;53.036;6.740;2022-07-29T17:05:08;32.50;38.00
57833;DHT22;43667;53.036;6.740;2022-07-29T17:07:35;32.30;37.10
57833;DHT22;43667;53.036;6.740;2022-07-29T17:10:00;32.30;37.30
57833;DHT22;43667;53.036;6.740;2022-07-29T17:12:32;32.30;37.60
57833;DHT22;43667;53.036;6.740;2022-07-29T17:14:58;32.30;37.20
57833;DHT22;43667;53.036;6.740;2022-07-29T17:17:23;32.00;37.70
57833;DHT22;43667;53.036;6.740;2022-07-29T17:19:49;31.40;38.30
57833;DHT22;43667;53.036;6.740;2022-07-29T17:22:15;30.50;39.60
57833;DHT22;43667;53.036;6.740;2022-07-29T17:24:40;29.70;40.40
57833;DHT22;43667;53.036;6.740;2022-07-29T17:27:06;28.90;41.90
57833;DHT22;43667;53.036;6.740;2022-07-29T17:29:32;28.40;43.20
57833;DHT22;43667;53.036;6.740;2022-07-29T17:31:59;27.90;44.50
57833;DHT22;43667;53.036;6.740;2022-07-29T17:34:25;27.50;45.00
57833;DHT22;43667;53.036;6.740;2022-07-29T17:36:51;27.10;46.10
57833;DHT22;43667;53.036;6.740;2022-07-29T17:39:16;26.70;46.80
57833;DHT22;43667;53.036;6.740;2022-07-29T17:41:42;26.30;48.50
57833;DHT22;43667;53.036;6.740;2022-07-29T17:44:10;26.10;48.70
57833;DHT22;43667;53.036;6.740;2022-07-29T17:46:35;25.70;49.00
57833;DHT22;43667;53.036;6.740;2022-07-29T17:49:01;25.50;50.40
57833;DHT22;43667;53.036;6.740;2022-07-29T17:51:27;25.40;50.90
57833;DHT22;43667;53.036;6.740;2022-07-29T17:53:53;25.10;51.20
57833;DHT22;43667;53.036;6.740;2022-07-29T17:56:19;24.90;52.00
57833;DHT22;43667;53.036;6.740;2022-07-29T17:58:45;24.70;53.10
57833;DHT22;43667;53.036;6.740;2022-07-29T18:01:14;24.60;53.70
57833;DHT22;43667;53.036;6.740;2022-07-29T18:03:40;24.40;54.60
57833;DHT22;43667;53.036;6.740;2022-07-29T18:06:06;24.20;55.00
57833;DHT22;43667;53.036;6.740;2022-07-29T18:08:32;24.10;55.90
57833;DHT22;43667;53.036;6.740;2022-07-29T18:10:58;24.00;56.90
57833;DHT22;43667;53.036;6.740;2022-07-29T18:13:23;23.80;57.80
57833;DHT22;43667;53.036;6.740;2022-07-29T18:15:51;23.70;58.50
57833;DHT22;43667;53.036;6.740;2022-07-29T18:18:17;23.60;60.30
57833;DHT22;43667;53.036;6.740;2022-07-29T18:20:43;23.50;61.50
57833;DHT22;43667;53.036;6.740;2022-07-29T18:23:10;23.40;62.20
57833;DHT22;43667;53.036;6.740;2022-07-29T18:25:36;23.40;63.10
57833;DHT22;43667;53.036;6.740;2022-07-29T18:28:03;23.40;64.40
57833;DHT22;43667;53.036;6.740;2022-07-29T18:30:30;23.30;68.00
57833;DHT22;43667;53.036;6.740;2022-07-29T18:32:58;23.30;71.90
57833;DHT22;43667;53.036;6.740;2022-07-29T18:35:23;23.20;74.10
57833;DHT22;43667;53.036;6.740;2022-07-29T18:37:49;23.10;76.90
57833;DHT22;43667;53.036;6.740;2022-07-29T18:40:17;23.00;78.80
57833;DHT22;43667;53.036;6.740;2022-07-29T18:42:45;22.90;78.60
57833;DHT22;43667;53.036;6.740;2022-07-29T18:45:11;22.90;80.00
57833;DHT22;43667;53.036;6.740;2022-07-29T18:47:37;22.80;80.90
57833;DHT22;43667;53.036;6.740;2022-07-29T18:50:06;22.60;83.80
57833;DHT22;43667;53.036;6.740;2022-07-29T18:52:32;22.60;84.70
57833;DHT22;43667;53.036;6.740;2022-07-29T18:55:01;22.50;86.40
57833;DHT22;43667;53.036;6.740;2022-07-29T18:57:28;22.40;86.70
57833;DHT22;43667;53.036;6.740;2022-07-29T18:59:54;22.30;87.60
57833;DHT22;43667;53.036;6.740;2022-07-29T19:02:20;22.20;89.80
57833;DHT22;43667;53.036;6.740;2022-07-29T19:04:46;22.10;91.40
57833;DHT22;43667;53.036;6.740;2022-07-29T19:07:14;21.90;91.90
57833;DHT22;43667;53.036;6.740;2022-07-29T19:09:44;21.80;92.50
57833;DHT22;43667;53.036;6.740;2022-07-29T19:12:10;21.70;92.90
57833;DHT22;43667;53.036;6.740;2022-07-29T19:14:36;21.60;93.60
57833;DHT22;43667;53.036;6.740;2022-07-29T19:17:02;21.50;94.00
57833;DHT22;43667;53.036;6.740;2022-07-29T19:19:27;21.40;94.70
57833;DHT22;43667;53.036;6.740;2022-07-29T19:21:53;21.30;94.80
57833;DHT22;43667;53.036;6.740;2022-07-29T19:24:19;21.20;95.30
57833;DHT22;43667;53.036;6.740;2022-07-29T19:26:44;21.10;95.80
57833;DHT22;43667;53.036;6.740;2022-07-29T19:29:13;21.00;96.30
57833;DHT22;43667;53.036;6.740;2022-07-29T19:31:39;20.90;96.40
57833;DHT22;43667;53.036;6.740;2022-07-29T19:34:06;20.80;96.80
57833;DHT22;43667;53.036;6.740;2022-07-29T19:36:32;20.70;97.10
57833;DHT22;43667;53.036;6.740;2022-07-29T19:38:57;20.50;97.30
57833;DHT22;43667;53.036;6.740;2022-07-29T19:41:25;20.50;97.30
57833;DHT22;43667;53.036;6.740;2022-07-29T19:43:51;20.40;97.40
57833;DHT22;43667;53.036;6.740;2022-07-29T19:46:16;20.30;98.50
57833;DHT22;43667;53.036;6.740;2022-07-29T19:48:42;20.20;98.00
57833;DHT22;43667;53.036;6.740;2022-07-29T19:51:07;20.10;98.00
57833;DHT22;43667;53.036;6.740;2022-07-29T19:53:33;20.10;98.10
57833;DHT22;43667;53.036;6.740;2022-07-29T19:55:59;20.00;98.40
57833;DHT22;43667;53.036;6.740;2022-07-29T19:58:24;19.90;98.60
57833;DHT22;43667;53.036;6.740;2022-07-29T20:00:50;19.80;98.70
57833;DHT22;43667;53.036;6.740;2022-07-29T20:03:15;19.80;98.90
57833;DHT22;43667;53.036;6.740;2022-07-29T20:05:41;19.60;98.90
57833;DHT22;43667;53.036;6.740;2022-07-29T20:08:07;19.60;99.20
57833;DHT22;43667;53.036;6.740;2022-07-29T20:10:33;19.50;99.30
57833;DHT22;43667;53.036;6.740;2022-07-29T20:12:59;19.40;99.60
57833;DHT22;43667;53.036;6.740;2022-07-29T20:15:25;19.30;99.90
57833;DHT22;43667;53.036;6.740;2022-07-29T20:17:50;19.30;99.90
57833;DHT22;43667;53.036;6.740;2022-07-29T20:20:16;19.20;99.90
57833;DHT22;43667;53.036;6.740;2022-07-29T20:22:42;19.10;99.90
57833;DHT22;43667;53.036;6.740;2022-07-29T20:25:08;19.00;99.90
57833;DHT22;43667;53.036;6.740;2022-07-29T20:27:36;19.00;99.90
57833;DHT22;43667;53.036;6.740;2022-07-29T20:30:05;18.90;99.90
57833;DHT22;43667;53.036;6.740;2022-07-29T20:32:31;18.80;99.90
57833;DHT22;43667;53.036;6.740;2022-07-29T20:34:56;18.70;99.90
57833;DHT22;43667;53.036;6.740;2022-07-29T20:37:22;18.70;99.90
57833;DHT22;43667;53.036;6.740;2022-07-29T20:39:48;18.60;99.90
57833;DHT22;43667;53.036;6.740;2022-07-29T20:42:14;18.50;99.90
57833;DHT22;43667;53.036;6.740;2022-07-29T20:44:40;18.50;99.90
57833;DHT22;43667;53.036;6.740;2022-07-29T20:47:06;18.40;99.90
57833;DHT22;43667;53.036;6.740;2022-07-29T20:49:32;18.30;99.90
57833;DHT22;43667;53.036;6.740;2022-07-29T20:51:57;18.30;99.90
57833;DHT22;43667;53.036;6.740;2022-07-29T20:54:24;18.30;99.90
57833;DHT22;43667;53.036;6.740;2022-07-29T20:56:49;18.20;99.90
57833;DHT22;43667;53.036;6.740;2022-07-29T20:59:15;18.20;99.90
57833;DHT22;43667;53.036;6.740;2022-07-29T21:01:41;18.10;99.90
57833;DHT22;43667;53.036;6.740;2022-07-29T21:04:06;18.10;99.90
57833;DHT22;43667;53.036;6.740;2022-07-29T21:06:32;18.00;99.90
57833;DHT22;43667;53.036;6.740;2022-07-29T21:08:59;18.00;99.90
57833;DHT22;43667;53.036;6.740;2022-07-29T21:11:26;17.90;99.90
57833;DHT22;43667;53.036;6.740;2022-07-29T21:13:52;17.90;99.90
57833;DHT22;43667;53.036;6.740;2022-07-29T21:16:18;17.80;99.90
57833;DHT22;43667;53.036;6.740;2022-07-29T21:18:45;17.80;99.90
57833;DHT22;43667;53.036;6.740;2022-07-29T21:21:13;17.70;99.90
57833;DHT22;43667;53.036;6.740;2022-07-29T21:23:39;17.70;99.90
57833;DHT22;43667;53.036;6.740;2022-07-29T21:26:06;17.70;99.90
57833;DHT22;43667;53.036;6.740;2022-07-29T21:28:31;17.60;99.90
57833;DHT22;43667;53.036;6.740;2022-07-29T21:31:07;17.60;99.90
57833;DHT22;43667;53.036;6.740;2022-07-29T21:33:32;17.50;99.90
57833;DHT22;43667;53.036;6.740;2022-07-29T21:36:00;17.50;99.90
57833;DHT22;43667;53.036;6.740;2022-07-29T21:38:26;17.40;99.90
57833;DHT22;43667;53.036;6.740;2022-07-29T21:40:52;17.40;99.90
57833;DHT22;43667;53.036;6.740;2022-07-29T21:43:18;17.30;99.90
57833;DHT22;43667;53.036;6.740;2022-07-29T21:45:44;17.30;99.90
57833;DHT22;43667;53.036;6.740;2022-07-29T21:48:18;17.20;99.90
57833;DHT22;43667;53.036;6.740;2022-07-29T21:50:45;17.20;99.90
57833;DHT22;43667;53.036;6.740;2022-07-29T21:53:11;17.20;99.90
57833;DHT22;43667;53.036;6.740;2022-07-29T21:55:37;17.20;99.90
57833;DHT22;43667;53.036;6.740;2022-07-29T21:58:03;17.10;99.90
57833;DHT22;43667;53.036;6.740;2022-07-29T22:00:29;17.10;99.90
57833;DHT22;43667;53.036;6.740;2022-07-29T22:03:01;17.10;99.90
57833;DHT22;43667;53.036;6.740;2022-07-29T22:05:28;17.00;99.90
57833;DHT22;43667;53.036;6.740;2022-07-29T22:07:54;17.00;99.90
57833;DHT22;43667;53.036;6.740;2022-07-29T22:10:20;17.00;99.90
57833;DHT22;43667;53.036;6.740;2022-07-29T22:12:50;16.90;99.90
57833;DHT22;43667;53.036;6.740;2022-07-29T22:15:16;16.90;99.90
57833;DHT22;43667;53.036;6.740;2022-07-29T22:17:42;16.90;99.90
57833;DHT22;43667;53.036;6.740;2022-07-29T22:20:08;16.90;99.90
57833;DHT22;43667;53.036;6.740;2022-07-29T22:22:34;16.80;99.90
57833;DHT22;43667;53.036;6.740;2022-07-29T22:25:00;16.80;99.90
57833;DHT22;43667;53.036;6.740;2022-07-29T22:27:25;16.80;99.90
57833;DHT22;43667;53.036;6.740;2022-07-29T22:29:51;16.70;99.90
57833;DHT22;43667;53.036;6.740;2022-07-29T22:32:16;16.70;99.90
57833;DHT22;43667;53.036;6.740;2022-07-29T22:34:42;16.70;99.90
57833;DHT22;43667;53.036;6.740;2022-07-29T22:37:07;16.60;99.90
57833;DHT22;43667;53.036;6.740;2022-07-29T22:39:33;16.60;99.90
57833;DHT22;43667;53.036;6.740;2022-07-29T22:41:59;16.50;99.90
57833;DHT22;43667;53.036;6.740;2022-07-29T22:44:25;16.50;99.90
57833;DHT22;43667;53.036;6.740;2022-07-29T22:46:51;16.50;99.90
57833;DHT22;43667;53.036;6.740;2022-07-29T22:49:16;16.40;99.90
57833;DHT22;43667;53.036;6.740;2022-07-29T22:51:42;16.40;99.90
57833;DHT22;43667;53.036;6.740;2022-07-29T22:54:08;16.40;99.90
57833;DHT22;43667;53.036;6.740;2022-07-29T22:56:33;16.40;99.90
57833;DHT22;43667;53.036;6.740;2022-07-29T22:58:59;16.30;99.90
57833;DHT22;43667;53.036;6.740;2022-07-29T23:01:24;16.30;99.90
57833;DHT22;43667;53.036;6.740;2022-07-29T23:03:50;16.30;99.90
57833;DHT22;43667;53.036;6.740;2022-07-29T23:06:16;16.20;99.90
57833;DHT22;43667;53.036;6.740;2022-07-29T23:08:41;16.20;99.90
57833;DHT22;43667;53.036;6.740;2022-07-29T23:11:07;16.10;99.90
57833;DHT22;43667;53.036;6.740;2022-07-29T23:13:33;16.10;99.90